createdAt,value
2023-02-13T00:01:25.716Z,100307.98
2023-02-13T00:04:00.782Z,100310.66
2023-02-13T00:06:32.019Z,100310.20
2023-02-13T00:09:01.131Z,100309.00
2023-02-13T00:11:30.189Z,100306.60
2023-02-13T00:13:59.333Z,100298.81
2023-02-13T00:16:28.604Z,100297.25
2023-02-13T00:19:03.242Z,100298.73
2023-02-13T00:21:31.922Z,100294.41
2023-02-13T00:24:00.868Z,100298.62
2023-02-13T00:26:29.814Z,100307.14
2023-02-13T00:29:02.393Z,100304.98
2023-02-13T00:31:33.772Z,100301.55
2023-02-13T00:34:03.134Z,100298.20
2023-02-13T00:36:32.031Z,100298.52
2023-02-13T00:39:00.898Z,100299.95
2023-02-13T00:41:30.712Z,100297.45
2023-02-13T00:43:59.449Z,100296.85
2023-02-13T00:46:27.989Z,100296.73
2023-02-13T00:48:56.764Z,100295.93
2023-02-13T00:51:25.470Z,100292.70
2023-02-13T00:53:54.344Z,100294.41
2023-02-13T00:56:22.927Z,100295.12
2023-02-13T00:58:53.347Z,100295.39
2023-02-13T01:01:22.417Z,100294.48
2023-02-13T01:03:51.009Z,100295.13
2023-02-13T01:06:20.130Z,100291.89
2023-02-13T01:08:48.917Z,100290.71
2023-02-13T01:11:19.355Z,100286.48
2023-02-13T01:13:48.441Z,100291.47
2023-02-13T01:16:18.174Z,100294.07
2023-02-13T01:18:47.451Z,100294.09
2023-02-13T01:21:21.297Z,100294.20
2023-02-13T01:23:54.254Z,100296.12
2023-02-13T01:26:24.426Z,100292.98
2023-02-13T01:28:57.929Z,100297.54
2023-02-13T01:31:27.022Z,100297.84
2023-02-13T01:33:58.336Z,100293.17
2023-02-13T01:36:27.190Z,100289.62
2023-02-13T01:38:58.645Z,100288.68
2023-02-13T01:41:27.866Z,100295.91
2023-02-13T01:44:00.321Z,100296.34
2023-02-13T01:46:39.361Z,100296.77
2023-02-13T01:49:12.349Z,100299.58
2023-02-13T01:51:44.382Z,100300.80
2023-02-13T01:54:15.619Z,100307.36
2023-02-13T01:56:54.458Z,100313.70
2023-02-13T01:59:34.478Z,100313.81
2023-02-13T02:02:03.908Z,100317.45
2023-02-13T02:04:34.343Z,100319.02
2023-02-13T02:07:20.731Z,100320.58
2023-02-13T02:09:52.696Z,100326.98
2023-02-13T02:12:32.236Z,100324.21
2023-02-13T02:15:00.929Z,100329.39
2023-02-13T02:17:34.401Z,100324.05
2023-02-13T02:20:02.814Z,100325.48
2023-02-13T02:22:54.319Z,100330.73
2023-02-13T02:25:28.433Z,100325.47
2023-02-13T02:28:22.136Z,100327.42
2023-02-13T02:31:13.263Z,100331.99
2023-02-13T02:34:01.048Z,100333.45
2023-02-13T02:36:55.203Z,100335.74
2023-02-13T02:39:30.780Z,100329.84
2023-02-13T02:42:10.933Z,100331.77
2023-02-13T02:45:12.696Z,100327.40
2023-02-13T02:48:07.286Z,100325.22
2023-02-13T02:50:43.480Z,100327.16
2023-02-13T02:53:37.839Z,100323.47
2023-02-13T02:56:14.816Z,100324.54
2023-02-13T02:59:09.821Z,100324.23
2023-02-13T03:01:57.315Z,100323.63
2023-02-13T03:04:59.203Z,100324.88
2023-02-13T03:07:28.119Z,100323.88
2023-02-13T03:10:17.568Z,100323.41
2023-02-13T03:13:21.745Z,100321.39
2023-02-13T03:16:11.685Z,100320.27
2023-02-13T03:19:02.677Z,100318.90
2023-02-13T03:22:06.175Z,100320.58
2023-02-13T03:24:59.435Z,100326.67
2023-02-13T03:28:10.433Z,100326.54
2023-02-13T03:30:42.198Z,100326.97
2023-02-13T03:33:49.356Z,100330.16
2023-02-13T03:36:48.877Z,100332.23
2023-02-13T03:39:31.294Z,100332.77
2023-02-13T03:42:41.545Z,100331.01
2023-02-13T03:45:31.699Z,100331.14
2023-02-13T03:48:00.718Z,100331.75
2023-02-13T03:50:29.300Z,100331.84
2023-02-13T03:53:06.690Z,100330.61
2023-02-13T03:55:56.987Z,100328.73
2023-02-13T03:58:50.525Z,100328.56
2023-02-13T04:01:19.736Z,100333.80
2023-02-13T04:03:59.816Z,100338.86
2023-02-13T04:06:51.925Z,100343.50
2023-02-13T04:09:20.259Z,100345.88
2023-02-13T04:11:52.076Z,100351.09
2023-02-13T04:14:25.464Z,100357.70
2023-02-13T04:17:02.928Z,100352.98
2023-02-13T04:19:32.514Z,100351.68
2023-02-13T04:22:05.545Z,100348.77
2023-02-13T04:24:34.253Z,100350.52
2023-02-13T04:27:03.840Z,100352.19
2023-02-13T04:29:32.728Z,100350.46
2023-02-13T04:32:01.251Z,100351.22
2023-02-13T04:34:30.206Z,100349.67
2023-02-13T04:36:59.098Z,100347.25
2023-02-13T04:39:28.189Z,100353.20
2023-02-13T04:41:56.712Z,100353.27
2023-02-13T04:44:25.376Z,100351.45
2023-02-13T04:46:53.968Z,100345.11
2023-02-13T04:49:24.621Z,100341.93
2023-02-13T04:51:54.180Z,100341.34
2023-02-13T04:54:23.484Z,100338.14
2023-02-13T04:56:51.692Z,100337.67
2023-02-13T04:59:20.858Z,100341.98
2023-02-13T05:01:49.192Z,100341.57
2023-02-13T05:04:18.160Z,100338.25
2023-02-13T05:06:46.805Z,100345.77
2023-02-13T05:09:15.594Z,100346.16
2023-02-13T05:11:43.994Z,100348.20
2023-02-13T05:14:12.877Z,100348.23
2023-02-13T05:16:41.852Z,100347.98
2023-02-13T05:19:10.438Z,100354.81
2023-02-13T05:21:57.704Z,100357.79
2023-02-13T05:24:26.916Z,100359.08
2023-02-13T05:26:55.845Z,100364.30
2023-02-13T05:29:24.326Z,100369.39
2023-02-13T05:31:54.645Z,100375.34
2023-02-13T05:34:25.646Z,100375.98
2023-02-13T05:36:54.891Z,100381.22
2023-02-13T05:39:23.378Z,100382.83
2023-02-13T05:41:51.661Z,100382.64
2023-02-13T05:44:20.336Z,100383.92
2023-02-13T05:46:49.716Z,100385.81
2023-02-13T05:49:20.176Z,100381.01
2023-02-13T05:51:49.327Z,100390.27
2023-02-13T05:54:18.973Z,100389.27
2023-02-13T05:57:04.245Z,100392.23
2023-02-13T05:59:44.517Z,100393.86
2023-02-13T06:02:15.159Z,100405.29
2023-02-13T06:04:45.549Z,100404.61
2023-02-13T06:07:14.501Z,100408.52
2023-02-13T06:09:45.210Z,100405.56
2023-02-13T06:12:16.521Z,100407.45
2023-02-13T06:14:45.618Z,100410.18
2023-02-13T06:17:17.794Z,100408.27
2023-02-13T06:19:47.184Z,100410.91
2023-02-13T06:22:18.242Z,100416.04
2023-02-13T06:24:52.228Z,100416.05
2023-02-13T06:27:24.020Z,100418.90
2023-02-13T06:29:53.200Z,100415.52
2023-02-13T06:32:22.187Z,100411.95
2023-02-13T06:34:52.113Z,100411.06
2023-02-13T06:37:21.516Z,100407.79
2023-02-13T06:39:52.588Z,100407.80
2023-02-13T06:42:21.832Z,100407.18
2023-02-13T06:44:51.215Z,100401.70
2023-02-13T06:47:21.875Z,100402.38
2023-02-13T06:49:51.070Z,100402.02
2023-02-13T06:52:20.722Z,100399.02
2023-02-13T06:54:51.162Z,100395.59
2023-02-13T06:57:21.121Z,100394.45
2023-02-13T06:59:52.337Z,100394.43
2023-02-13T07:02:23.564Z,100398.48
2023-02-13T07:04:54.551Z,100401.14
2023-02-13T07:07:23.543Z,100400.98
2023-02-13T07:09:52.574Z,100402.11
2023-02-13T07:12:24.691Z,100400.48
2023-02-13T07:14:53.895Z,100397.61
2023-02-13T07:17:23.093Z,100401.22
2023-02-13T07:19:51.881Z,100402.92
2023-02-13T07:22:20.995Z,100410.44
2023-02-13T07:24:50.075Z,100412.13
2023-02-13T07:27:18.785Z,100418.70
2023-02-13T07:29:47.955Z,100420.25
2023-02-13T07:32:16.959Z,100421.64
2023-02-13T07:35:00.661Z,100424.61
2023-02-13T07:37:31.925Z,100423.30
2023-02-13T07:40:01.133Z,100421.36
2023-02-13T07:42:36.385Z,100421.23
2023-02-13T07:45:06.581Z,100426.41
2023-02-13T07:47:36.125Z,100427.20
2023-02-13T07:50:06.457Z,100425.63
2023-02-13T07:52:38.138Z,100433.81
2023-02-13T07:55:08.075Z,100437.98
2023-02-13T07:57:37.216Z,100443.84
2023-02-13T08:00:07.722Z,100446.52
2023-02-13T08:02:41.218Z,100441.49
2023-02-13T08:05:10.156Z,100448.27
2023-02-13T08:07:40.432Z,100445.20
2023-02-13T08:10:31.452Z,100446.23
2023-02-13T08:13:00.429Z,100451.69
2023-02-13T08:15:29.638Z,100448.71
2023-02-13T08:17:58.959Z,100444.11
2023-02-13T08:20:27.989Z,100444.31
2023-02-13T08:23:03.400Z,100435.98
2023-02-13T08:25:33.380Z,100436.42
2023-02-13T08:28:02.501Z,100440.72
2023-02-13T08:30:31.938Z,100440.62
2023-02-13T08:33:01.277Z,100436.86
2023-02-13T08:35:32.110Z,100436.71
2023-02-13T08:38:07.734Z,100431.86
2023-02-13T08:40:37.267Z,100434.17
2023-02-13T08:43:06.582Z,100432.71
2023-02-13T08:45:39.802Z,100426.98
2023-02-13T08:48:09.921Z,100425.46
2023-02-13T08:50:39.566Z,100412.86
2023-02-13T08:53:08.891Z,100401.82
2023-02-13T08:55:38.122Z,100393.88
2023-02-13T08:58:07.276Z,100394.66
2023-02-13T09:00:36.635Z,100388.85
2023-02-13T09:03:05.672Z,100383.95
2023-02-13T09:05:36.509Z,100381.86
2023-02-13T09:08:08.401Z,100376.66
2023-02-13T09:10:37.977Z,100374.40
2023-02-13T09:13:06.868Z,100367.94
2023-02-13T09:15:40.851Z,100368.83
2023-02-13T09:18:09.821Z,100373.08
2023-02-13T09:20:38.770Z,100372.04
2023-02-13T09:23:07.852Z,100367.69
2023-02-13T09:25:36.952Z,100372.88
2023-02-13T09:28:05.745Z,100363.13
2023-02-13T09:30:35.401Z,100362.88
2023-02-13T09:33:05.780Z,100363.05
2023-02-13T09:35:34.919Z,100352.40
2023-02-13T09:38:04.086Z,100353.46
2023-02-13T09:40:50.630Z,100359.73
2023-02-13T09:43:30.857Z,100354.39
2023-02-13T09:46:02.322Z,100344.01
2023-02-13T09:48:33.847Z,100333.63
2023-02-13T09:51:02.719Z,100324.92
2023-02-13T09:53:36.554Z,100331.11
2023-02-13T09:56:16.684Z,100333.83
2023-02-13T09:58:51.038Z,100338.02
2023-02-13T10:01:42.592Z,100340.39
2023-02-13T10:04:18.375Z,100334.09
2023-02-13T10:06:51.460Z,100332.15
2023-02-13T10:09:27.824Z,100328.09
2023-02-13T10:12:23.140Z,100333.13
2023-02-13T10:15:12.915Z,100325.15
2023-02-13T10:17:51.131Z,100330.71
2023-02-13T10:20:37.010Z,100327.73
2023-02-13T10:23:18.098Z,100322.95
2023-02-13T10:26:02.803Z,100312.69
2023-02-13T10:28:39.516Z,100311.98
2023-02-13T10:31:17.567Z,100313.09
2023-02-13T10:33:51.258Z,100310.15
2023-02-13T10:36:26.014Z,100304.21
2023-02-13T10:39:08.270Z,100312.19
2023-02-13T10:41:58.030Z,100305.64
2023-02-13T10:44:29.440Z,100301.79
2023-02-13T10:47:17.221Z,100297.34
2023-02-13T10:49:48.887Z,100298.61
2023-02-13T10:52:27.496Z,100290.39
2023-02-13T10:55:27.747Z,100282.69
2023-02-13T10:58:20.784Z,100281.13
2023-02-13T11:00:59.001Z,100266.09
2023-02-13T11:03:29.143Z,100267.86
2023-02-13T11:05:58.895Z,100264.45
2023-02-13T11:08:33.495Z,100256.73
2023-02-13T11:11:02.265Z,100251.32
2023-02-13T11:13:32.276Z,100246.83
2023-02-13T11:16:03.461Z,100249.23
2023-02-13T11:18:39.028Z,100256.36
2023-02-13T11:21:16.929Z,100257.12
2023-02-13T11:23:50.059Z,100256.95
2023-02-13T11:26:24.908Z,100252.10
2023-02-13T11:29:06.077Z,100241.64
2023-02-13T11:31:37.375Z,100244.52
2023-02-13T11:34:20.402Z,100247.53
2023-02-13T11:37:12.035Z,100248.36
2023-02-13T11:39:43.832Z,100250.52
2023-02-13T11:42:30.196Z,100249.89
2023-02-13T11:45:07.084Z,100245.46
2023-02-13T11:47:43.323Z,100242.89
2023-02-13T11:50:24.284Z,100231.79
2023-02-13T11:53:20.116Z,100231.04
2023-02-13T11:56:14.292Z,100225.67
2023-02-13T11:58:48.321Z,100217.06
2023-02-13T12:01:20.589Z,100213.38
2023-02-13T12:04:17.024Z,100206.70
2023-02-13T12:07:05.185Z,100196.29
2023-02-13T12:09:34.693Z,100188.88
2023-02-13T12:12:07.790Z,100190.41
2023-02-13T12:14:41.351Z,100184.09
2023-02-13T12:17:32.720Z,100175.36
2023-02-13T12:20:03.319Z,100168.11
2023-02-13T12:22:39.167Z,100158.42
2023-02-13T12:25:14.721Z,100157.27
2023-02-13T12:27:44.153Z,100150.59
2023-02-13T12:30:12.697Z,100147.46
2023-02-13T12:32:56.011Z,100141.95
2023-02-13T12:35:53.273Z,100140.84
2023-02-13T12:38:22.725Z,100135.77
2023-02-13T12:40:59.837Z,100128.66
2023-02-13T12:44:00.552Z,100130.20
2023-02-13T12:46:42.629Z,100117.94
2023-02-13T12:49:37.692Z,100117.52
2023-02-13T12:52:32.456Z,100116.48
2023-02-13T12:55:29.439Z,100114.02
2023-02-13T12:58:22.800Z,100111.10
2023-02-13T13:01:04.083Z,100113.70
2023-02-13T13:04:24.274Z,100109.70
2023-02-13T13:07:24.654Z,100110.20
2023-02-13T13:10:17.368Z,100117.48
2023-02-13T13:12:54.353Z,100123.59
2023-02-13T13:15:55.884Z,100129.38
2023-02-13T13:18:46.847Z,100129.00
2023-02-13T13:21:43.224Z,100138.50
2023-02-13T13:24:29.324Z,100133.91
2023-02-13T13:26:58.522Z,100127.98
2023-02-13T13:29:46.085Z,100120.34
2023-02-13T13:32:18.189Z,100118.45
2023-02-13T13:34:47.046Z,100109.75
2023-02-13T13:38:02.622Z,100101.55
2023-02-13T13:40:46.878Z,100093.22
2023-02-13T13:43:40.821Z,100083.46
2023-02-13T13:46:23.671Z,100080.83
2023-02-13T13:49:29.643Z,100073.95
2023-02-13T13:52:20.951Z,100074.92
2023-02-13T13:54:53.573Z,100068.51
2023-02-13T13:57:24.620Z,100065.46
2023-02-13T14:00:24.995Z,100067.69
2023-02-13T14:03:00.601Z,100061.45
2023-02-13T14:05:32.460Z,100062.54
2023-02-13T14:08:39.920Z,100051.04
2023-02-13T14:11:27.593Z,100037.07
2023-02-13T14:13:59.749Z,100034.84
2023-02-13T14:16:44.375Z,100030.95
2023-02-13T14:19:32.963Z,100023.59
2023-02-13T14:22:38.206Z,100019.58
2023-02-13T14:25:07.922Z,100018.64
2023-02-13T14:27:38.372Z,100014.83
2023-02-13T14:30:29.073Z,100010.53
2023-02-13T14:33:01.313Z,100002.90
2023-02-13T14:35:32.078Z,100000.15
2023-02-13T14:38:02.613Z,99998.34
2023-02-13T14:40:49.700Z,100009.91
2023-02-13T14:43:46.427Z,100000.61
2023-02-13T14:46:30.260Z,99995.59
2023-02-13T14:49:14.956Z,99991.17
2023-02-13T14:52:07.126Z,99990.61
2023-02-13T14:54:43.036Z,99994.98
2023-02-13T14:57:14.704Z,99983.91
2023-02-13T14:59:48.594Z,99975.73
2023-02-13T15:02:28.991Z,99973.09
2023-02-13T15:05:03.788Z,99973.73
2023-02-13T15:07:35.949Z,99968.98
2023-02-13T15:10:08.071Z,99965.95
2023-02-13T15:12:37.563Z,99969.75
2023-02-13T15:16:11.172Z,99975.45
2023-02-13T15:18:48.105Z,99969.67
2023-02-13T15:21:19.178Z,99967.39
2023-02-13T15:23:53.075Z,99970.98
2023-02-13T15:26:24.136Z,99973.39
2023-02-13T15:29:20.837Z,99974.27
2023-02-13T15:31:54.744Z,99979.14
2023-02-13T15:34:29.780Z,99982.44
2023-02-13T15:36:58.969Z,99981.45
2023-02-13T15:39:30.377Z,99978.98
2023-02-13T15:42:00.805Z,99975.25
2023-02-13T15:44:37.004Z,99970.94
2023-02-13T15:47:15.255Z,99971.00
2023-02-13T15:49:46.818Z,99967.34
2023-02-13T15:52:20.349Z,99969.26
2023-02-13T15:54:53.930Z,99959.70
2023-02-13T15:57:23.981Z,99960.30
2023-02-13T15:59:54.512Z,99954.77
2023-02-13T16:02:40.769Z,99950.61
2023-02-13T16:05:11.800Z,99948.80
2023-02-13T16:07:50.063Z,99941.82
2023-02-13T16:10:32.004Z,99942.77
2023-02-13T16:13:07.537Z,99933.53
2023-02-13T16:15:42.331Z,99927.87
2023-02-13T16:18:19.314Z,99927.52
2023-02-13T16:20:48.213Z,99928.70
2023-02-13T16:23:18.310Z,99923.95
2023-02-13T16:25:47.788Z,99914.64
2023-02-13T16:28:23.593Z,99915.29
2023-02-13T16:31:01.273Z,99907.86
2023-02-13T16:33:32.229Z,99906.57
2023-02-13T16:36:27.625Z,99894.16
2023-02-13T16:38:59.104Z,99886.77
2023-02-13T16:41:29.787Z,99883.75
2023-02-13T16:43:59.438Z,99880.42
2023-02-13T16:46:36.518Z,99871.93
2023-02-13T16:49:08.673Z,99868.97
2023-02-13T16:51:41.959Z,99860.98
2023-02-13T16:54:10.959Z,99865.98
2023-02-13T16:56:42.718Z,99863.47
2023-02-13T16:59:27.169Z,99855.04
2023-02-13T17:02:22.114Z,99856.95
2023-02-13T17:04:52.211Z,99858.29
2023-02-13T17:07:23.893Z,99863.58
2023-02-13T17:09:54.416Z,99863.40
2023-02-13T17:12:24.008Z,99851.13
2023-02-13T17:14:53.680Z,99849.77
2023-02-13T17:17:23.333Z,99849.14
2023-02-13T17:19:52.420Z,99839.42
2023-02-13T17:22:36.584Z,99835.09
2023-02-13T17:25:15.652Z,99832.59
2023-02-13T17:27:44.899Z,99832.67
2023-02-13T17:30:25.824Z,99840.05
2023-02-13T17:33:10.961Z,99833.96
2023-02-13T17:35:40.586Z,99837.36
2023-02-13T17:38:10.855Z,99834.39
2023-02-13T17:40:43.942Z,99827.79
2023-02-13T17:43:17.120Z,99824.08
2023-02-13T17:45:46.851Z,99816.99
2023-02-13T17:48:15.816Z,99809.94
2023-02-13T17:50:44.956Z,99809.11
2023-02-13T17:53:32.949Z,99808.29
2023-02-13T17:56:02.182Z,99801.36
2023-02-13T17:58:31.246Z,99791.63
2023-02-13T18:01:02.209Z,99785.28
2023-02-13T18:03:55.429Z,99781.67
2023-02-13T18:06:24.742Z,99776.52
2023-02-13T18:08:57.937Z,99764.06
2023-02-13T18:11:32.970Z,99758.58
2023-02-13T18:14:02.505Z,99743.44
2023-02-13T18:16:32.432Z,99738.53
2023-02-13T18:19:01.681Z,99726.84
2023-02-13T18:21:30.879Z,99725.48
2023-02-13T18:23:59.968Z,99726.07
2023-02-13T18:26:48.964Z,99711.16
2023-02-13T18:29:19.275Z,99702.12
2023-02-13T18:31:48.760Z,99695.59
2023-02-13T18:34:18.506Z,99684.85
2023-02-13T18:36:48.324Z,99682.52
2023-02-13T18:39:17.914Z,99676.89
2023-02-13T18:41:48.935Z,99657.40
2023-02-13T18:44:28.430Z,99665.71
2023-02-13T18:46:59.768Z,99660.99
2023-02-13T18:49:29.126Z,99648.25
2023-02-13T18:51:58.342Z,99632.16
2023-02-13T18:54:29.670Z,99620.40
2023-02-13T18:56:58.863Z,99618.46
2023-02-13T18:59:29.093Z,99627.59
2023-02-13T19:01:59.006Z,99623.79
2023-02-13T19:04:28.314Z,99618.77
2023-02-13T19:06:59.514Z,99612.88
2023-02-13T19:09:29.162Z,99604.77
2023-02-13T19:11:59.372Z,99599.62
2023-02-13T19:14:38.452Z,99578.13
2023-02-13T19:17:10.832Z,99571.36
2023-02-13T19:19:44.896Z,99567.95
2023-02-13T19:22:13.887Z,99569.96
2023-02-13T19:24:45.567Z,99569.65
2023-02-13T19:27:16.675Z,99555.08
2023-02-13T19:29:47.647Z,99558.45
2023-02-13T19:32:26.133Z,99543.79
2023-02-13T19:34:57.533Z,99543.66
2023-02-13T19:37:30.674Z,99534.09
2023-02-13T19:40:05.502Z,99515.88
2023-02-13T19:42:35.108Z,99507.33
2023-02-13T19:45:04.560Z,99500.58
2023-02-13T19:47:34.429Z,99491.88
2023-02-13T19:50:03.744Z,99487.13
2023-02-13T19:52:32.887Z,99478.81
2023-02-13T19:55:02.478Z,99467.87
2023-02-13T19:57:33.959Z,99443.70
2023-02-13T20:00:24.579Z,99429.14
2023-02-13T20:03:02.225Z,99412.27
2023-02-13T20:05:40.874Z,99394.30
2023-02-13T20:08:12.343Z,99388.98
2023-02-13T20:10:51.297Z,99363.91
2023-02-13T20:13:26.949Z,99345.85
2023-02-13T20:15:56.819Z,99331.05
2023-02-13T20:18:26.032Z,99311.04
2023-02-13T20:20:55.960Z,99299.20
2023-02-13T20:23:25.991Z,99287.58
2023-02-13T20:26:04.159Z,99263.45
2023-02-13T20:28:38.687Z,99238.31
2023-02-13T20:31:19.886Z,99233.84
2023-02-13T20:33:51.262Z,99207.02
2023-02-13T20:36:29.264Z,99199.52
2023-02-13T20:39:02.087Z,99179.39
2023-02-13T20:41:37.257Z,99163.46
2023-02-13T20:44:08.995Z,99140.10
2023-02-13T20:46:41.498Z,99118.26
2023-02-13T20:49:19.265Z,99115.38
2023-02-13T20:51:49.383Z,99112.90
2023-02-13T20:54:19.105Z,99095.64
2023-02-13T20:56:49.107Z,99084.70
2023-02-13T20:59:19.234Z,99064.20
2023-02-13T21:01:51.399Z,99049.41
2023-02-13T21:04:21.513Z,99045.91
2023-02-13T21:06:50.926Z,99042.59
2023-02-13T21:09:20.612Z,99028.91
2023-02-13T21:11:51.898Z,99024.98
2023-02-13T21:14:21.002Z,99018.80
2023-02-13T21:16:50.254Z,99010.81
2023-02-13T21:19:22.230Z,99008.21
2023-02-13T21:21:51.834Z,99001.21
2023-02-13T21:24:22.075Z,98989.02
2023-02-13T21:26:52.786Z,98974.00
2023-02-13T21:29:21.624Z,98972.12
2023-02-13T21:31:51.570Z,98969.02
2023-02-13T21:34:19.970Z,98961.13
2023-02-13T21:36:50.320Z,98960.60
2023-02-13T21:39:19.191Z,98960.39
2023-02-13T21:41:47.856Z,98961.31
2023-02-13T21:44:16.899Z,98966.80
2023-02-13T21:46:45.637Z,98962.66
2023-02-13T21:49:16.257Z,98940.76
2023-02-13T21:51:45.648Z,98931.43
2023-02-13T21:54:35.784Z,98921.67
2023-02-13T21:57:04.164Z,98919.23
2023-02-13T21:59:33.355Z,98910.30
2023-02-13T22:02:03.094Z,98898.73
2023-02-13T22:04:32.013Z,98902.80
2023-02-13T22:07:00.689Z,98897.17
2023-02-13T22:09:30.980Z,98904.02
2023-02-13T22:12:00.169Z,98901.42
2023-02-13T22:14:29.061Z,98887.17
2023-02-13T22:16:57.710Z,98881.23
2023-02-13T22:19:26.940Z,98869.39
2023-02-13T22:21:55.136Z,98866.52
2023-02-13T22:24:24.051Z,98864.02
2023-02-13T22:26:53.280Z,98855.63
2023-02-13T22:29:23.352Z,98850.34
2023-02-13T22:31:52.277Z,98853.77
2023-02-13T22:34:21.520Z,98840.66
2023-02-13T22:36:51.146Z,98837.77
2023-02-13T22:39:20.010Z,98847.61
2023-02-13T22:41:50.437Z,98839.07
2023-02-13T22:44:18.887Z,98831.73
2023-02-13T22:46:48.109Z,98831.89
2023-02-13T22:49:16.901Z,98829.25
2023-02-13T22:51:45.866Z,98829.77
2023-02-13T22:54:14.991Z,98822.50
2023-02-13T22:56:44.533Z,98819.85
2023-02-13T22:59:14.306Z,98815.50
2023-02-13T23:01:44.456Z,98806.10
2023-02-13T23:04:13.209Z,98794.44
2023-02-13T23:06:43.249Z,98787.83
2023-02-13T23:09:11.987Z,98783.52
2023-02-13T23:11:59.566Z,98771.98
2023-02-13T23:14:28.451Z,98763.83
2023-02-13T23:17:16.048Z,98762.95
2023-02-13T23:19:45.862Z,98763.48
2023-02-13T23:22:16.710Z,98742.99
2023-02-13T23:24:45.156Z,98736.36
2023-02-13T23:27:15.981Z,98733.88
2023-02-13T23:29:44.595Z,98725.63
2023-02-13T23:32:13.810Z,98713.61
2023-02-13T23:34:42.889Z,98709.89
2023-02-13T23:37:11.778Z,98695.67
2023-02-13T23:39:40.672Z,98691.08
2023-02-13T23:42:09.926Z,98678.09
2023-02-13T23:44:38.896Z,98670.05
2023-02-13T23:47:07.658Z,98678.34
2023-02-13T23:49:37.008Z,98685.56
2023-02-13T23:52:05.735Z,98683.91
2023-02-13T23:54:34.215Z,98684.83
2023-02-13T23:57:04.133Z,98669.93
2023-02-13T23:59:33.839Z,98658.94
